Time;durP1;ratioP1;P1;durP2;ratioP2;P2;SDS_P1;SDS_P2;PMS_P1;PMS_P2;Temp;Humidity;BMP_temperature;BMP_pressure;BME280_temperature;BME280_humidity;BME280_pressure;Samples;Min_cycle;Max_cycle;Signal;HPM_P1;HPM_P2
2023/07/04 00:00:16;;;;;;;6.95;1.05;;;14.40;99.90;;;;;;5022272;28;20034;-74
2023/07/04 00:02:41;;;;;;;4.47;0.80;;;14.30;99.90;;;;;;5027130;28;20490;-74
2023/07/04 00:05:07;;;;;;;5.88;0.95;;;14.30;99.90;;;;;;5013445;28;20061;-73
2023/07/04 00:07:34;;;;;;;7.75;1.42;;;14.30;99.90;;;;;;5010148;28;20041;-74
2023/07/04 00:09:59;;;;;;;5.10;1.17;;;14.30;99.90;;;;;;5014178;28;20140;-73
2023/07/04 00:12:25;;;;;;;8.55;0.95;;;14.30;99.90;;;;;;5015122;28;20465;-74
2023/07/04 00:14:51;;;;;;;6.75;1.17;;;14.30;99.90;;;;;;4995993;28;20033;-74
2023/07/04 00:17:18;;;;;;;9.27;1.10;;;14.30;99.90;;;;;;5010133;28;20112;-74
2023/07/04 00:19:44;;;;;;;5.70;1.02;;;14.30;99.90;;;;;;4998966;28;20092;-74
2023/07/04 00:22:10;;;;;;;4.85;1.10;;;14.30;99.90;;;;;;5007477;28;20033;-74
2023/07/04 00:24:37;;;;;;;4.60;1.05;;;14.30;99.90;;;;;;5027189;28;20018;-77
2023/07/04 00:27:03;;;;;;;4.75;0.80;;;14.30;99.90;;;;;;5022579;28;20544;-74
2023/07/04 00:29:29;;;;;;;6.03;1.05;;;14.30;99.90;;;;;;5019062;28;20038;-74
2023/07/04 00:31:55;;;;;;;13.05;1.73;;;14.30;99.90;;;;;;4988923;28;20084;-73
2023/07/04 00:34:21;;;;;;;7.53;1.38;;;14.30;99.90;;;;;;5005340;28;20065;-73
2023/07/04 00:36:47;;;;;;;6.60;1.33;;;14.20;99.90;;;;;;5009255;28;20045;-75
2023/07/04 00:39:12;;;;;;;14.40;2.08;;;14.20;99.90;;;;;;5001255;28;20100;-74
2023/07/04 00:41:41;;;;;;;4.13;0.80;;;14.20;99.90;;;;;;5008988;28;20465;-73
2023/07/04 00:44:22;;;;;;;3.22;0.65;;;14.10;99.90;;;;;;5022563;28;20026;-73
2023/07/04 00:47:06;;;;;;;;;;;14.00;99.90;;;;;;5001296;28;20033;-73
2023/07/04 00:49:42;;;;;;;5.47;0.57;;;14.00;99.90;;;;;;5001424;28;19916;-75
2023/07/04 00:52:12;;;;;;;4.95;0.73;;;13.90;99.90;;;;;;4994603;28;20037;-73
2023/07/04 00:54:50;;;;;;;2.35;0.50;;;13.80;99.90;;;;;;5015425;28;20052;-74
2023/07/04 00:57:17;;;;;;;5.97;0.95;;;13.80;99.90;;;;;;4994161;28;20687;-73
2023/07/04 00:59:45;;;;;;;2.50;0.75;;;13.70;99.90;;;;;;4993742;28;20576;-74
2023/07/04 01:02:15;;;;;;;5.88;0.95;;;13.70;99.90;;;;;;5011188;28;20022;-73
2023/07/04 01:04:41;;;;;;;2.55;0.80;;;13.80;99.90;;;;;;5011849;28;20036;-74
2023/07/04 01:07:13;;;;;;;4.13;0.40;;;13.70;99.90;;;;;;5008916;28;20045;-72
2023/07/04 01:09:42;;;;;;;3.08;0.77;;;13.70;99.90;;;;;;5013035;28;20124;-74
2023/07/04 01:12:08;;;;;;;2.97;0.70;;;13.70;99.90;;;;;;5024917;28;20131;-73
2023/07/04 01:14:34;;;;;;;8.38;1.02;;;13.70;99.90;;;;;;5021648;28;20423;-73
2023/07/04 01:17:00;;;;;;;3.67;0.70;;;13.70;99.90;;;;;;5003216;28;20038;-74
2023/07/04 01:19:32;;;;;;;3.67;0.68;;;13.80;99.90;;;;;;5001892;28;20038;-75
2023/07/04 01:22:14;;;;;;;3.05;0.60;;;13.80;99.90;;;;;;4999970;28;20493;-73
2023/07/04 01:25:10;;;;;;;3.33;0.55;;;13.70;99.90;;;;;;5016188;28;20117;-73
2023/07/04 01:27:39;;;;;;;8.93;0.68;;;13.70;99.90;;;;;;5006717;28;20513;-74
2023/07/04 01:30:07;;;;;;;3.13;0.68;;;13.70;99.90;;;;;;5006993;28;20026;-75
2023/07/04 01:32:34;;;;;;;5.13;0.68;;;13.70;99.90;;;;;;4981957;28;20029;-73
2023/07/04 01:35:00;;;;;;;6.88;0.77;;;13.60;99.90;;;;;;5007974;28;20029;-73
2023/07/04 01:37:30;;;;;;;3.53;0.50;;;13.60;99.90;;;;;;5022221;28;20029;-72
2023/07/04 01:39:57;;;;;;;4.72;0.50;;;13.60;99.90;;;;;;5001162;28;20049;-73
2023/07/04 01:42:26;;;;;;;3.38;0.52;;;13.50;99.90;;;;;;5000650;28;20398;-74
2023/07/04 01:44:51;;;;;;;1.75;0.45;;;13.50;99.90;;;;;;5000421;28;20388;-73
2023/07/04 01:47:18;;;;;;;1.45;0.52;;;13.40;99.90;;;;;;5012761;28;20084;-74
2023/07/04 01:49:43;;;;;;;7.78;0.63;;;13.40;99.90;;;;;;5012206;28;20584;-73
2023/07/04 01:52:09;;;;;;;5.97;0.88;;;13.30;99.90;;;;;;5007944;28;20049;-73
2023/07/04 01:54:35;;;;;;;6.03;0.40;;;13.30;99.90;;;;;;5016420;28;20104;-74
2023/07/04 01:57:01;;;;;;;3.15;0.60;;;13.30;99.90;;;;;;5004255;28;20025;-74
2023/07/04 01:59:26;;;;;;;4.13;1.00;;;13.20;99.90;;;;;;5015142;28;20735;-74
2023/07/04 02:01:52;;;;;;;3.35;0.60;;;13.20;99.90;;;;;;5021742;28;20105;-74
2023/07/04 02:04:18;;;;;;;4.03;0.55;;;13.20;99.90;;;;;;5033215;28;20040;-74
2023/07/04 02:06:43;;;;;;;4.05;0.60;;;13.20;99.90;;;;;;5004274;28;20037;-74
2023/07/04 02:09:09;;;;;;;6.18;0.50;;;13.10;99.90;;;;;;5025068;28;20123;-73
2023/07/04 02:11:34;;;;;;;4.63;1.40;;;13.10;99.90;;;;;;5004273;28;20029;-74
2023/07/04 02:14:00;;;;;;;5.95;0.60;;;13.10;99.90;;;;;;5006999;28;20037;-73
2023/07/04 02:16:26;;;;;;;7.50;1.05;;;13.10;99.90;;;;;;5011530;28;20026;-74
2023/07/04 02:18:52;;;;;;;3.28;1.02;;;13.10;99.90;;;;;;4998943;28;20037;-74
2023/07/04 02:21:18;;;;;;;2.80;0.40;;;13.00;99.90;;;;;;5000582;28;20042;-74
2023/07/04 02:23:44;;;;;;;5.22;0.95;;;13.00;99.90;;;;;;4991840;28;20042;-74
2023/07/04 02:26:11;;;;;;;4.63;0.73;;;13.00;99.90;;;;;;5000452;28;20041;-73
2023/07/04 02:28:37;;;;;;;4.00;0.75;;;13.00;99.90;;;;;;5015762;28;20036;-75
2023/07/04 02:31:02;;;;;;;6.68;1.05;;;13.10;99.90;;;;;;5005564;28;20125;-74
2023/07/04 02:33:28;;;;;;;3.10;0.50;;;13.10;99.90;;;;;;4997667;28;20041;-74
2023/07/04 02:35:54;;;;;;;2.70;1.15;;;13.10;99.90;;;;;;5006440;28;20052;-74
2023/07/04 02:38:20;;;;;;;3.60;0.73;;;13.10;99.90;;;;;;4999930;28;20038;-75
2023/07/04 02:40:47;;;;;;;4.20;0.55;;;13.10;99.90;;;;;;5009392;28;20052;-73
2023/07/04 02:43:13;;;;;;;4.53;0.60;;;13.10;99.90;;;;;;4995915;28;20486;-74
2023/07/04 02:45:39;;;;;;;6.10;1.08;;;13.10;99.90;;;;;;4994571;28;20037;-73
2023/07/04 02:48:06;;;;;;;2.75;0.90;;;13.10;99.90;;;;;;5007123;28;20084;-73
2023/07/04 02:50:31;;;;;;;3.08;0.60;;;13.10;99.90;;;;;;5001885;28;20075;-73
2023/07/04 02:52:58;;;;;;;4.55;1.00;;;13.10;99.90;;;;;;4994696;28;20486;-74
2023/07/04 02:55:24;;;;;;;3.05;0.60;;;13.10;99.90;;;;;;5005302;28;20064;-74
2023/07/04 02:57:49;;;;;;;6.28;1.48;;;13.10;99.90;;;;;;5005922;28;20046;-74
2023/07/04 03:00:15;;;;;;;3.22;1.15;;;13.10;99.90;;;;;;5003320;28;20556;-74
2023/07/04 03:02:41;;;;;;;3.90;0.60;;;13.10;99.90;;;;;;5008768;28;20433;-74
2023/07/04 03:05:07;;;;;;;3.63;0.70;;;13.00;99.90;;;;;;5015456;28;20385;-74
2023/07/04 03:07:33;;;;;;;4.47;0.77;;;13.00;99.90;;;;;;5022741;28;20092;-73
2023/07/04 03:09:59;;;;;;;7.10;0.68;;;13.00;99.90;;;;;;4991577;28;20057;-73
2023/07/04 03:12:24;;;;;;;5.93;1.35;;;13.00;99.90;;;;;;5011570;28;20080;-74
2023/07/04 03:14:50;;;;;;;7.10;0.65;;;13.00;99.90;;;;;;5018651;28;20044;-73
2023/07/04 03:17:16;;;;;;;2.33;0.52;;;13.10;99.90;;;;;;4999128;28;20034;-74
2023/07/04 03:19:41;;;;;;;4.70;0.70;;;13.10;99.90;;;;;;5020121;28;20030;-75
2023/07/04 03:22:07;;;;;;;3.47;0.75;;;13.10;99.90;;;;;;5002377;28;20068;-73
2023/07/04 03:24:32;;;;;;;2.78;0.52;;;13.20;99.90;;;;;;5010813;28;20490;-73
2023/07/04 03:26:58;;;;;;;4.78;0.75;;;13.20;99.90;;;;;;5006099;28;20030;-75
2023/07/04 03:29:24;;;;;;;3.65;1.40;;;13.10;99.90;;;;;;4997373;28;20042;-74
2023/07/04 03:31:49;;;;;;;6.85;0.70;;;13.10;99.90;;;;;;4997987;28;20036;-74
2023/07/04 03:34:15;;;;;;;12.57;0.82;;;13.10;99.90;;;;;;5002656;28;20781;-74
2023/07/04 03:36:40;;;;;;;3.63;0.60;;;13.10;99.90;;;;;;5002929;28;20042;-73
2023/07/04 03:39:06;;;;;;;10.73;1.50;;;13.00;99.90;;;;;;5009392;28;20083;-73
2023/07/04 03:41:32;;;;;;;6.30;0.90;;;13.00;99.90;;;;;;4996186;28;20046;-74
2023/07/04 03:44:00;;;;;;;6.95;0.80;;;13.00;99.90;;;;;;5007655;28;20477;-75
2023/07/04 03:46:26;;;;;;;8.38;0.73;;;12.90;99.90;;;;;;5019298;28;20033;-73
2023/07/04 03:48:51;;;;;;;3.72;0.73;;;12.90;99.90;;;;;;4989886;28;20037;-73
2023/07/04 03:51:17;;;;;;;5.22;0.90;;;13.00;99.90;;;;;;5008742;28;20077;-73
2023/07/04 03:53:42;;;;;;;4.30;1.63;;;13.00;99.90;;;;;;5023599;28;20119;-75
2023/07/04 03:56:08;;;;;;;4.18;0.75;;;13.00;99.90;;;;;;4998844;28;20040;-74
2023/07/04 03:58:33;;;;;;;5.15;0.82;;;13.00;99.90;;;;;;5018911;28;20409;-73
2023/07/04 04:01:01;;;;;;;2.45;0.70;;;13.00;99.90;;;;;;5003488;28;20056;-74
2023/07/04 04:03:27;;;;;;;8.85;1.67;;;13.10;99.90;;;;;;4998800;28;20033;-74
2023/07/04 04:05:53;;;;;;;7.72;1.15;;;13.20;99.90;;;;;;5007624;28;20108;-74
2023/07/04 04:08:19;;;;;;;3.63;1.00;;;13.10;99.90;;;;;;5011078;28;20390;-73
2023/07/04 04:10:44;;;;;;;6.30;1.13;;;13.10;99.90;;;;;;5030652;28;20033;-75
2023/07/04 04:13:10;;;;;;;5.72;1.02;;;13.10;99.90;;;;;;5008092;28;20041;-74
2023/07/04 04:15:36;;;;;;;5.28;1.23;;;13.20;99.90;;;;;;4998912;28;20045;-74
2023/07/04 04:18:02;;;;;;;3.95;0.82;;;13.20;99.90;;;;;;5005695;28;20037;-74
2023/07/04 04:20:27;;;;;;;10.05;1.08;;;13.20;99.90;;;;;;5028159;28;20457;-74
2023/07/04 04:22:53;;;;;;;6.47;1.17;;;13.20;99.90;;;;;;5005095;28;20413;-73
2023/07/04 04:25:19;;;;;;;6.50;1.48;;;13.20;99.90;;;;;;5019133;28;20516;-74
2023/07/04 04:27:48;;;;;;;4.55;0.85;;;13.30;99.90;;;;;;5020349;28;20136;-74
2023/07/04 04:30:14;;;;;;;6.20;0.80;;;13.30;99.90;;;;;;5001897;28;20494;-73
2023/07/04 04:32:40;;;;;;;8.98;1.20;;;13.30;99.90;;;;;;5005612;28;20033;-73
2023/07/04 04:35:08;;;;;;;9.55;0.75;;;13.30;99.90;;;;;;5018868;28;20127;-73
2023/07/04 04:37:34;;;;;;;9.82;0.75;;;13.40;99.90;;;;;;4999303;28;20139;-73
2023/07/04 04:40:00;;;;;;;8.38;1.05;;;13.40;99.90;;;;;;5002503;28;20517;-73
2023/07/04 04:42:26;;;;;;;7.60;0.90;;;13.40;99.90;;;;;;4996053;28;20034;-73
2023/07/04 04:44:53;;;;;;;8.45;0.95;;;13.40;99.90;;;;;;5003091;28;20038;-73
2023/07/04 04:47:23;;;;;;;7.90;0.80;;;13.50;99.90;;;;;;5003263;28;20030;-73
2023/07/04 04:49:50;;;;;;;6.80;1.20;;;13.50;99.90;;;;;;4995141;28;20034;-73
2023/07/04 04:52:20;;;;;;;6.18;1.05;;;13.50;99.90;;;;;;4998076;28;20401;-73
2023/07/04 04:54:47;;;;;;;6.05;0.85;;;13.60;99.90;;;;;;5010491;28;20516;-73
2023/07/04 04:57:13;;;;;;;7.65;1.50;;;13.60;99.90;;;;;;5027064;28;20105;-73
2023/07/04 04:59:39;;;;;;;5.35;1.48;;;13.60;99.90;;;;;;4993418;28;20088;-74
2023/07/04 05:02:04;;;;;;;6.38;1.33;;;13.70;99.90;;;;;;4992895;28;20506;-72
2023/07/04 05:04:30;;;;;;;3.28;0.70;;;13.70;99.90;;;;;;5025662;28;20110;-73
2023/07/04 05:06:55;;;;;;;6.50;1.02;;;13.70;99.90;;;;;;5023758;28;20030;-72
2023/07/04 05:09:21;;;;;;;7.63;1.02;;;13.70;99.90;;;;;;5010937;28;20037;-74
2023/07/04 05:11:47;;;;;;;6.97;0.88;;;13.70;99.90;;;;;;4995624;28;20076;-72
2023/07/04 05:14:13;;;;;;;4.30;1.00;;;13.80;99.90;;;;;;4992808;28;20038;-73
2023/07/04 05:16:39;;;;;;;4.20;0.80;;;13.80;99.90;;;;;;5026937;28;20025;-74
2023/07/04 05:19:04;;;;;;;9.23;0.77;;;13.80;99.90;;;;;;5026117;28;20021;-74
2023/07/04 05:21:30;;;;;;;6.45;0.65;;;13.70;99.90;;;;;;4998210;28;20049;-73
2023/07/04 05:23:56;;;;;;;5.97;1.20;;;13.80;99.90;;;;;;4994027;28;20126;-74
2023/07/04 05:26:25;;;;;;;4.05;0.50;;;13.80;99.90;;;;;;5012908;28;20025;-72
2023/07/04 05:28:52;;;;;;;13.32;1.25;;;14.00;99.90;;;;;;5002336;28;20038;-73
2023/07/04 05:31:21;;;;;;;3.60;0.80;;;14.00;99.90;;;;;;4997966;28;20028;-73
2023/07/04 05:33:47;;;;;;;9.57;1.33;;;14.10;99.90;;;;;;5012263;28;20624;-74
2023/07/04 05:36:17;;;;;;;5.90;1.33;;;14.10;99.90;;;;;;5017690;28;20462;-73
2023/07/04 05:38:43;;;;;;;3.20;0.60;;;14.20;99.90;;;;;;5030006;28;20108;-75
2023/07/04 05:41:11;;;;;;;7.65;0.73;;;14.30;99.90;;;;;;5011750;28;20425;-74
2023/07/04 05:43:37;;;;;;;5.30;0.93;;;14.50;99.90;;;;;;5030382;28;20033;-74
2023/07/04 05:46:03;;;;;;;4.82;1.27;;;14.80;99.90;;;;;;5007618;28;20033;-76
2023/07/04 05:48:29;;;;;;;8.93;1.40;;;15.00;99.90;;;;;;5030231;28;20025;-74
2023/07/04 05:50:57;;;;;;;3.22;0.75;;;15.30;99.90;;;;;;5004630;28;20068;-73
2023/07/04 05:53:25;;;;;;;9.25;1.40;;;15.60;99.90;;;;;;5022329;28;20030;-74
2023/07/04 05:55:51;;;;;;;4.57;0.60;;;15.90;99.90;;;;;;4991810;28;20091;-74
2023/07/04 05:58:18;;;;;;;7.15;1.30;;;16.20;99.90;;;;;;4992514;28;20042;-73
2023/07/04 06:00:45;;;;;;;7.78;0.80;;;16.60;99.90;;;;;;5011294;28;20033;-74
2023/07/04 06:03:10;;;;;;;4.78;0.80;;;17.00;99.90;;;;;;5011559;28;20029;-72
2023/07/04 06:05:41;;;;;;;8.25;0.95;;;17.30;99.90;;;;;;5032412;28;20033;-74
2023/07/04 06:08:07;;;;;;;5.28;0.85;;;17.60;99.90;;;;;;5019771;28;20233;-75
2023/07/04 06:10:33;;;;;;;6.05;1.10;;;17.60;99.90;;;;;;4992379;28;20030;-75
2023/07/04 06:12:59;;;;;;;12.43;1.38;;;17.50;99.90;;;;;;4991529;28;20348;-73
2023/07/04 06:15:25;;;;;;;7.07;0.60;;;17.30;99.90;;;;;;4992460;28;20037;-74
2023/07/04 06:17:51;;;;;;;6.72;1.25;;;17.10;99.90;;;;;;5013442;28;20042;-73
2023/07/04 06:20:16;;;;;;;2.97;0.75;;;16.90;99.90;;;;;;4993445;28;20037;-73
2023/07/04 06:22:42;;;;;;;6.95;0.80;;;16.80;99.90;;;;;;5006327;28;20041;-74
2023/07/04 06:25:08;;;;;;;4.95;0.82;;;16.80;99.90;;;;;;5009283;28;20101;-74
2023/07/04 06:27:33;;;;;;;9.65;0.88;;;16.90;99.90;;;;;;4999891;28;20519;-73
2023/07/04 06:29:59;;;;;;;7.13;1.00;;;17.10;99.90;;;;;;5010647;28;20036;-73
2023/07/04 06:32:25;;;;;;;9.00;1.15;;;17.20;99.90;;;;;;5004869;28;20034;-72
2023/07/04 06:34:50;;;;;;;6.55;0.80;;;17.50;99.90;;;;;;5000807;28;20037;-75
2023/07/04 06:37:16;;;;;;;4.80;0.70;;;17.70;99.90;;;;;;5011421;28;20891;-74
2023/07/04 06:39:43;;;;;;;8.60;1.60;;;17.70;99.90;;;;;;5015691;28;20399;-74
2023/07/04 06:42:08;;;;;;;10.52;2.70;;;17.80;99.90;;;;;;5012810;28;20115;-75
2023/07/04 06:44:34;;;;;;;4.90;1.02;;;17.80;99.90;;;;;;5025789;28;20100;-74
2023/07/04 06:46:59;;;;;;;8.45;1.77;;;17.90;99.90;;;;;;5021047;28;20026;-73
2023/07/04 06:49:25;;;;;;;7.03;0.73;;;18.10;99.90;;;;;;4998980;28;20072;-72
2023/07/04 06:51:50;;;;;;;13.35;1.08;;;18.30;99.90;;;;;;5009573;28;20053;-74
2023/07/04 06:54:16;;;;;;;10.45;1.00;;;18.70;99.90;;;;;;4997019;28;20437;-72
2023/07/04 06:56:42;;;;;;;8.18;1.38;;;18.80;99.90;;;;;;5016310;28;20026;-72
2023/07/04 06:59:07;;;;;;;5.85;1.00;;;18.80;99.90;;;;;;5016906;28;20035;-73
2023/07/04 07:01:33;;;;;;;4.10;1.02;;;18.60;99.90;;;;;;5011252;28;20041;-72
2023/07/04 07:04:03;;;;;;;8.70;1.08;;;18.40;99.90;;;;;;5015512;28;20040;-72
2023/07/04 07:06:29;;;;;;;8.60;0.70;;;18.20;99.90;;;;;;5030244;28;20531;-73
2023/07/04 07:08:55;;;;;;;4.90;1.02;;;17.90;99.90;;;;;;5007377;28;20026;-73
2023/07/04 07:11:21;;;;;;;5.03;1.00;;;17.70;99.90;;;;;;5008282;28;20039;-73
2023/07/04 07:13:47;;;;;;;3.67;0.75;;;17.40;99.90;;;;;;5027642;28;20521;-72
2023/07/04 07:16:17;;;;;;;4.18;0.70;;;17.20;99.90;;;;;;5001527;28;20052;-73
2023/07/04 07:18:45;;;;;;;6.45;1.33;;;17.10;99.90;;;;;;5022500;28;20034;-74
2023/07/04 07:21:13;;;;;;;7.72;0.93;;;16.90;99.90;;;;;;5016229;28;20069;-72
2023/07/04 07:23:39;;;;;;;7.45;1.55;;;17.00;99.90;;;;;;5027922;28;20036;-74
2023/07/04 07:26:08;;;;;;;7.97;1.10;;;17.00;99.90;;;;;;5001241;28;20034;-72
2023/07/04 07:28:38;;;;;;;8.60;1.02;;;17.20;99.90;;;;;;5027747;28;20033;-73
2023/07/04 07:31:10;;;;;;;8.50;1.50;;;17.30;99.90;;;;;;5009328;28;20459;-73
2023/07/04 07:33:38;;;;;;;3.63;0.65;;;18.10;99.90;;;;;;5001444;28;20080;-73
2023/07/04 07:36:14;;;;;;;7.70;1.10;;;19.60;99.90;;;;;;5000658;28;20045;-74
2023/07/04 07:38:40;;;;;;;4.72;0.73;;;21.00;99.90;;;;;;4991458;28;20466;-72
2023/07/04 07:41:06;;;;;;;7.85;1.52;;;21.10;99.90;;;;;;5007577;28;20053;-73
2023/07/04 07:43:32;;;;;;;6.47;0.90;;;20.80;99.90;;;;;;5019355;28;20061;-73
2023/07/04 07:45:58;;;;;;;9.23;0.88;;;20.70;99.90;;;;;;5025408;28;20037;-73
2023/07/04 07:48:23;;;;;;;7.35;0.95;;;20.80;99.90;;;;;;5006483;28;20441;-72
2023/07/04 07:50:49;;;;;;;8.65;0.77;;;20.70;99.90;;;;;;4998879;28;20069;-74
2023/07/04 07:53:15;;;;;;;5.55;1.17;;;20.70;99.90;;;;;;5005371;28;20042;-71
2023/07/04 07:55:41;;;;;;;14.48;1.40;;;20.70;99.90;;;;;;5004051;28;20041;-72
2023/07/04 07:58:08;;;;;;;6.43;1.00;;;20.60;99.90;;;;;;5011555;28;20041;-72
2023/07/04 08:00:34;;;;;;;9.10;1.38;;;20.30;99.90;;;;;;5010602;28;20048;-72
2023/07/04 08:03:00;;;;;;;3.95;1.25;;;20.30;99.90;;;;;;5000475;28;20401;-71
2023/07/04 08:05:25;;;;;;;4.30;0.90;;;20.10;99.90;;;;;;5015166;28;20525;-72
2023/07/04 08:07:51;;;;;;;6.43;1.27;;;20.00;99.90;;;;;;5017835;28;20065;-72
2023/07/04 08:10:17;;;;;;;4.85;0.85;;;20.00;99.90;;;;;;5011416;28;20489;-72
2023/07/04 08:12:42;;;;;;;3.65;1.20;;;19.90;99.90;;;;;;5014185;28;20163;-72
2023/07/04 08:15:10;;;;;;;7.38;0.98;;;19.80;99.90;;;;;;5015377;28;20041;-72
2023/07/04 08:17:36;;;;;;;9.30;1.10;;;19.60;99.90;;;;;;5020247;28;20037;-73
2023/07/04 08:20:03;;;;;;;5.43;0.77;;;19.60;99.90;;;;;;5015952;28;20040;-73
2023/07/04 08:22:29;;;;;;;4.65;0.77;;;19.60;99.90;;;;;;5000654;28;20037;-72
2023/07/04 08:24:55;;;;;;;5.80;1.00;;;19.60;99.90;;;;;;4994337;28;20038;-73
2023/07/04 08:27:24;;;;;;;8.70;1.10;;;19.60;99.90;;;;;;4997718;28;20507;-74
2023/07/04 08:29:50;;;;;;;7.78;1.10;;;19.60;99.90;;;;;;5013749;28;20038;-72
2023/07/04 08:32:16;;;;;;;6.40;0.80;;;19.60;99.90;;;;;;4998701;28;20037;-73
2023/07/04 08:34:42;;;;;;;4.68;0.90;;;19.70;99.90;;;;;;4998368;28;20034;-73
2023/07/04 08:37:09;;;;;;;5.45;0.85;;;19.70;99.90;;;;;;4999141;28;20068;-73
2023/07/04 08:39:35;;;;;;;6.93;1.10;;;19.70;99.90;;;;;;5001832;28;20030;-73
2023/07/04 08:42:03;;;;;;;3.95;0.95;;;19.70;99.90;;;;;;5004645;28;20041;-72
2023/07/04 08:44:44;;;;;;;9.20;0.80;;;19.90;99.90;;;;;;5001592;28;20108;-73
2023/07/04 08:47:12;;;;;;;3.30;0.80;;;20.10;99.90;;;;;;4998716;28;20045;-74
2023/07/04 08:49:47;;;;;;;6.65;0.70;;;20.40;99.90;;;;;;4995076;28;20065;-74
2023/07/04 08:52:15;;;;;;;4.30;0.73;;;20.50;99.90;;;;;;5020350;28;20038;-74
2023/07/04 08:54:41;;;;;;;4.35;0.90;;;20.50;99.90;;;;;;5003757;28;20048;-73
2023/07/04 08:57:33;;;;;;;7.07;1.13;;;20.40;99.90;;;;;;5018349;28;20073;-74
2023/07/04 09:00:06;;;;;;;7.32;1.50;;;20.30;99.90;;;;;;4980939;28;20046;-74
2023/07/04 09:02:50;;;;;;;7.13;0.82;;;20.30;99.90;;;;;;4994765;28;20486;-74
2023/07/04 09:05:39;;;;;;;6.18;0.90;;;20.40;99.90;;;;;;5010841;28;20091;-73
2023/07/04 09:08:34;;;;;;;7.32;1.30;;;20.90;99.90;;;;;;5011623;28;20033;-73
2023/07/04 09:11:03;;;;;;;3.35;0.77;;;21.60;99.90;;;;;;4984954;28;20049;-75
2023/07/04 09:13:41;;;;;;;5.43;0.75;;;22.00;99.90;;;;;;5014550;28;20084;-74
2023/07/04 09:16:16;;;;;;;7.22;2.33;;;22.10;99.40;;;;;;5024459;28;20117;-73
2023/07/04 09:18:48;;;;;;;7.10;1.05;;;22.00;98.10;;;;;;5008768;28;20064;-74
2023/07/04 09:21:15;;;;;;;9.48;0.95;;;21.80;99.10;;;;;;5013230;28;20559;-73
2023/07/04 09:23:43;;;;;;;5.30;0.85;;;21.50;98.80;;;;;;5014844;28;20461;-76
2023/07/04 09:26:11;;;;;;;3.72;0.90;;;21.30;98.70;;;;;;5012445;28;20048;-73
2023/07/04 09:28:42;;;;;;;4.50;1.05;;;21.10;99.00;;;;;;5020244;28;20047;-74
2023/07/04 09:31:10;;;;;;;;;;;21.00;98.10;;;;;;5015634;28;20033;-72
2023/07/04 09:33:37;;;;;;;7.28;0.90;;;20.90;98.20;;;;;;5030314;28;20443;-73
2023/07/04 09:36:03;;;;;;;5.18;0.93;;;20.90;99.40;;;;;;5030470;28;20545;-73
2023/07/04 09:38:55;;;;;;;5.10;0.85;;;20.80;99.80;;;;;;5005995;28;20033;-73
2023/07/04 09:41:26;;;;;;;7.13;1.52;;;20.80;99.90;;;;;;4995494;28;20041;-73
2023/07/04 09:43:54;;;;;;;6.45;0.80;;;20.80;99.90;;;;;;5021045;28;20513;-72
2023/07/04 09:46:31;;;;;;;7.00;0.95;;;21.00;99.60;;;;;;5000493;28;20033;-73
2023/07/04 09:49:29;;;;;;;6.63;1.30;;;21.10;99.90;;;;;;4991590;28;20128;-73
2023/07/04 09:52:11;;;;;;;5.30;0.77;;;21.40;99.20;;;;;;5003565;28;20045;-73
2023/07/04 09:54:39;;;;;;;4.70;0.77;;;21.60;97.40;;;;;;5018445;28;20053;-73
2023/07/04 09:57:19;;;;;;;6.57;1.00;;;21.60;97.30;;;;;;5012373;28;20037;-75
2023/07/04 09:59:45;;;;;;;4.43;0.63;;;21.60;98.10;;;;;;5028479;28;20049;-73
2023/07/04 10:02:34;;;;;;;3.78;0.50;;;21.70;96.40;;;;;;5010462;28;20553;-74
2023/07/04 10:05:00;;;;;;;7.25;0.90;;;21.70;97.50;;;;;;5027921;28;20034;-73
2023/07/04 10:07:26;;;;;;;4.63;0.80;;;21.50;96.10;;;;;;5016172;28;20074;-73
2023/07/04 10:09:58;;;;;;;4.70;0.77;;;21.50;97.20;;;;;;5018509;28;20036;-73
2023/07/04 10:12:26;;;;;;;4.63;0.70;;;21.40;97.10;;;;;;5021909;28;20400;-74
2023/07/04 10:14:53;;;;;;;3.65;0.80;;;21.10;97.40;;;;;;5018102;28;20072;-74
2023/07/04 10:17:28;;;;;;;4.35;0.95;;;21.00;97.70;;;;;;5015475;28;20045;-74
2023/07/04 10:20:08;;;;;;;2.67;0.50;;;20.70;98.20;;;;;;5030064;28;20081;-73
2023/07/04 10:22:45;;;;;;;7.28;0.70;;;20.40;98.20;;;;;;5040238;28;20470;-72
2023/07/04 10:25:15;;;;;;;4.70;1.25;;;20.20;97.50;;;;;;5035036;28;20029;-73
2023/07/04 10:27:44;;;;;;;6.10;1.08;;;20.00;98.90;;;;;;5039081;28;20025;-72
2023/07/04 10:30:18;;;;;;;3.92;0.77;;;19.80;98.40;;;;;;5029892;28;20041;-73
2023/07/04 10:32:49;;;;;;;3.83;0.77;;;19.50;97.20;;;;;;5023077;28;20053;-75
2023/07/04 10:35:19;;;;;;;8.02;0.90;;;19.50;98.20;;;;;;5028252;28;20036;-73
2023/07/04 10:37:59;;;;;;;6.30;1.15;;;19.50;98.70;;;;;;5026910;28;20418;-73
2023/07/04 10:40:27;;;;;;;11.25;1.35;;;19.70;98.30;;;;;;5015916;28;20048;-72
2023/07/04 10:43:06;;;;;;;4.63;0.98;;;20.10;97.50;;;;;;5016870;28;20041;-73
2023/07/04 10:45:32;;;;;;;2.90;0.77;;;20.40;98.10;;;;;;5026484;28;20513;-74
2023/07/04 10:48:02;;;;;;;2.90;0.60;;;20.70;97.20;;;;;;5009155;28;20033;-73
2023/07/04 10:50:35;;;;;;;7.95;0.88;;;20.90;95.20;;;;;;5022586;28;20041;-75
2023/07/04 10:53:01;;;;;;;3.88;0.82;;;20.90;95.80;;;;;;5021664;28;20115;-74
2023/07/04 10:55:26;;;;;;;2.85;0.95;;;20.90;95.70;;;;;;5006422;28;20084;-75
2023/07/04 10:58:00;;;;;;;6.93;0.90;;;21.00;96.20;;;;;;5008089;28;20445;-74
2023/07/04 11:00:35;;;;;;;3.85;0.93;;;21.20;96.30;;;;;;4993867;28;20190;-74
2023/07/04 11:03:07;;;;;;;3.10;0.80;;;21.50;96.20;;;;;;5015258;28;20066;-75
2023/07/04 11:05:41;;;;;;;5.05;1.00;;;21.70;95.10;;;;;;5028741;28;20030;-74
2023/07/04 11:08:19;;;;;;;4.45;0.85;;;21.90;95.30;;;;;;5012801;28;20053;-74
2023/07/04 11:10:51;;;;;;;3.72;0.80;;;22.10;94.90;;;;;;4994492;28;20180;-75
2023/07/04 11:13:20;;;;;;;5.65;1.13;;;22.40;94.50;;;;;;5021589;28;20032;-73
2023/07/04 11:15:51;;;;;;;8.23;1.25;;;22.60;94.10;;;;;;5009410;28;20034;-74
2023/07/04 11:18:18;;;;;;;2.90;0.98;;;22.80;93.10;;;;;;5018803;28;20124;-74
2023/07/04 11:21:05;;;;;;;3.88;0.57;;;23.00;93.20;;;;;;5001449;28;20513;-74
2023/07/04 11:23:44;;;;;;;4.43;0.70;;;23.10;93.40;;;;;;4998128;28;20033;-72
2023/07/04 11:26:10;;;;;;;5.25;1.25;;;23.10;92.80;;;;;;5017798;28;20076;-74
2023/07/04 11:28:35;;;;;;;4.88;0.57;;;23.30;93.60;;;;;;5022984;28;20034;-72
2023/07/04 11:31:22;;;;;;;3.70;0.70;;;23.30;93.10;;;;;;4996045;28;20037;-75
2023/07/04 11:33:53;;;;;;;2.92;0.80;;;23.40;93.00;;;;;;5002480;28;20045;-72
2023/07/04 11:36:32;;;;;;;7.95;0.90;;;23.10;92.50;;;;;;5015961;28;20334;-73
2023/07/04 11:39:02;;;;;;;1.65;0.52;;;22.80;92.20;;;;;;5018415;28;20128;-71
2023/07/04 11:41:39;;;;;;;5.90;1.25;;;22.60;92.40;;;;;;5006958;28;20037;-72
2023/07/04 11:44:28;;;;;;;3.05;0.85;;;22.10;91.80;;;;;;5026721;28;20041;-72
2023/07/04 11:47:01;;;;;;;3.72;0.85;;;21.90;92.90;;;;;;5002534;28;20038;-72
2023/07/04 11:49:27;;;;;;;5.60;0.80;;;21.90;93.20;;;;;;4996560;28;20111;-72
2023/07/04 11:52:24;;;;;;;3.60;1.20;;;21.90;94.00;;;;;;5001960;28;20033;-73
2023/07/04 11:55:06;;;;;;;2.65;0.45;;;22.00;94.50;;;;;;5019719;28;20045;-74
2023/07/04 11:58:08;;;;;;;2.35;0.57;;;22.10;94.30;;;;;;5016584;28;20177;-73
2023/07/04 12:00:37;;;;;;;2.22;0.57;;;22.20;93.60;;;;;;5016235;28;20056;-73
2023/07/04 12:03:18;;;;;;;3.13;0.60;;;22.30;93.20;;;;;;4997526;28;20486;-74
2023/07/04 12:05:44;;;;;;;5.65;0.77;;;22.40;93.10;;;;;;5002382;28;20141;-74
2023/07/04 12:08:19;;;;;;;3.47;0.90;;;22.40;93.40;;;;;;5018384;28;20447;-73
2023/07/04 12:10:46;;;;;;;2.45;0.65;;;22.60;93.40;;;;;;5001285;28;20049;-72
2023/07/04 12:13:18;;;;;;;3.63;0.52;;;22.30;93.30;;;;;;5003829;28;20037;-72
2023/07/04 12:15:49;;;;;;;4.35;0.93;;;22.10;93.40;;;;;;5001625;28;20045;-73
2023/07/04 12:18:29;;;;;;;3.63;0.60;;;22.10;93.10;;;;;;5002155;28;20037;-72
2023/07/04 12:20:58;;;;;;;3.45;0.60;;;22.10;93.10;;;;;;5003883;28;20429;-72
2023/07/04 12:23:24;;;;;;;1.17;0.50;;;22.20;92.90;;;;;;5016193;28;20030;-73
2023/07/04 12:25:55;;;;;;;2.05;0.35;;;22.20;93.50;;;;;;5018967;28;20064;-74
2023/07/04 12:28:27;;;;;;;4.32;0.60;;;22.40;93.30;;;;;;4999863;28;20038;-72
2023/07/04 12:31:02;;;;;;;3.85;0.75;;;22.50;93.30;;;;;;5014747;28;20048;-71
2023/07/04 12:33:37;;;;;;;5.38;0.57;;;22.60;92.80;;;;;;5017145;28;20099;-71
2023/07/04 12:36:09;;;;;;;4.53;1.00;;;22.80;93.20;;;;;;5012548;28;20029;-72
2023/07/04 12:38:48;;;;;;;5.25;0.82;;;22.70;92.60;;;;;;5016003;28;20048;-71
2023/07/04 12:41:22;;;;;;;3.25;0.40;;;22.90;92.50;;;;;;4991946;28;20042;-72
2023/07/04 12:44:02;;;;;;;2.05;0.50;;;23.00;92.70;;;;;;5012610;28;20046;-72
2023/07/04 12:46:32;;;;;;;3.92;0.55;;;23.00;92.00;;;;;;5012995;28;20099;-72
2023/07/04 12:48:59;;;;;;;1.45;0.60;;;23.00;92.70;;;;;;4996121;28;20038;-74
2023/07/04 12:51:28;;;;;;;3.60;0.82;;;23.00;92.20;;;;;;5015912;28;20043;-72
2023/07/04 12:53:56;;;;;;;5.68;0.82;;;23.10;91.70;;;;;;4995248;28;20029;-72
2023/07/04 12:56:22;;;;;;;2.38;0.73;;;23.10;91.70;;;;;;5013549;28;20038;-70